Time;durP1;ratioP1;P1;durP2;ratioP2;P2;SDS_P1;SDS_P2;PMS_P1;PMS_P2;Temp;Humidity;BMP_temperature;BMP_pressure;BME280_temperature;BME280_humidity;BME280_pressure;Samples;Min_cycle;Max_cycle;Signal;HPM_P1;HPM_P2
2023/08/06 00:02:16;;;;;;;5.03;3.10;;;;;;;;;;5079159;28;20032;-78
2023/08/06 00:04:41;;;;;;;3.60;2.57;;;;;;;;;;5078922;28;20265;-78
2023/08/06 00:07:06;;;;;;;4.40;2.72;;;;;;;;;;5078358;28;20271;-78
2023/08/06 00:09:31;;;;;;;5.00;2.40;;;;;;;;;;5077475;28;20025;-78
2023/08/06 00:11:57;;;;;;;3.30;2.40;;;;;;;;;;5078844;28;20264;-78
2023/08/06 00:14:22;;;;;;;2.70;2.35;;;;;;;;;;5080474;28;20032;-78
2023/08/06 00:16:47;;;;;;;3.28;2.60;;;;;;;;;;5079778;28;20024;-78
2023/08/06 00:19:12;;;;;;;4.47;2.50;;;;;;;;;;5075618;28;20071;-78
2023/08/06 00:21:38;;;;;;;2.55;2.35;;;;;;;;;;5075584;28;20250;-77
2023/08/06 00:24:03;;;;;;;3.63;2.40;;;;;;;;;;5075652;28;20073;-77
2023/08/06 00:26:28;;;;;;;3.72;2.72;;;;;;;;;;5074953;28;20020;-78
2023/08/06 00:28:54;;;;;;;4.15;2.63;;;;;;;;;;5074112;28;20119;-78
2023/08/06 00:31:19;;;;;;;4.00;2.88;;;;;;;;;;5074462;28;20126;-78
2023/08/06 00:33:44;;;;;;;3.38;2.60;;;;;;;;;;5075706;28;20391;-78
2023/08/06 00:36:09;;;;;;;3.53;2.85;;;;;;;;;;5074711;28;20021;-78
2023/08/06 00:38:35;;;;;;;4.18;2.65;;;;;;;;;;5075726;28;20467;-77
2023/08/06 00:41:00;;;;;;;4.53;3.00;;;;;;;;;;5074739;28;20016;-77
2023/08/06 00:43:25;;;;;;;4.60;2.75;;;;;;;;;;5075114;28;20535;-77
2023/08/06 00:45:51;;;;;;;4.88;3.28;;;;;;;;;;5074645;28;20024;-77
2023/08/06 00:48:16;;;;;;;4.93;3.10;;;;;;;;;;5074358;28;20020;-78
2023/08/06 00:50:41;;;;;;;4.85;3.03;;;;;;;;;;5076796;28;20020;-78
2023/08/06 00:53:07;;;;;;;4.25;2.92;;;;;;;;;;5079387;28;20020;-77
2023/08/06 00:55:33;;;;;;;5.32;3.40;;;;;;;;;;5079131;28;20095;-78
2023/08/06 00:57:58;;;;;;;4.65;3.17;;;;;;;;;;5075967;28;20025;-78
2023/08/06 01:00:25;;;;;;;4.47;3.30;;;;;;;;;;5075843;28;20383;-78
2023/08/06 01:02:51;;;;;;;4.22;3.15;;;;;;;;;;5074700;28;20029;-77
2023/08/06 01:05:16;;;;;;;3.60;2.67;;;;;;;;;;5073835;28;20020;-77
2023/08/06 01:08:01;;;;;;;5.03;2.80;;;;;;;;;;5073810;28;20027;-78
2023/08/06 01:10:43;;;;;;;3.65;2.75;;;;;;;;;;5076108;28;20025;-77
2023/08/06 01:13:23;;;;;;;5.30;2.80;;;;;;;;;;5072601;28;20078;-78
2023/08/06 01:15:57;;;;;;;4.13;2.95;;;;;;;;;;5073889;28;20028;-77
2023/08/06 01:18:22;;;;;;;4.10;2.85;;;;;;;;;;5074038;28;20108;-77
2023/08/06 01:20:49;;;;;;;3.95;2.42;;;;;;;;;;5073643;28;20052;-77
2023/08/06 01:23:14;;;;;;;3.70;2.50;;;;;;;;;;5073423;28;20055;-77
2023/08/06 01:25:54;;;;;;;2.40;2.20;;;;;;;;;;5073835;28;20522;-77
2023/08/06 01:28:46;;;;;;;4.40;2.33;;;;;;;;;;5073489;28;20028;-77
2023/08/06 01:31:18;;;;;;;2.45;2.00;;;;;;;;;;5074693;28;20048;-78
2023/08/06 01:33:47;;;;;;;4.55;2.33;;;;;;;;;;5076558;28;20040;-77
2023/08/06 01:36:15;;;;;;;3.95;2.53;;;;;;;;;;5073581;28;20385;-77
2023/08/06 01:38:40;;;;;;;4.30;2.60;;;;;;;;;;5070748;28;20047;-78
2023/08/06 01:41:05;;;;;;;3.83;2.43;;;;;;;;;;5073381;28;20052;-77
2023/08/06 01:43:30;;;;;;;5.47;2.60;;;;;;;;;;5076176;28;20265;-78
2023/08/06 01:45:56;;;;;;;4.17;2.70;;;;;;;;;;5076610;28;20597;-78
2023/08/06 01:48:21;;;;;;;2.87;2.50;;;;;;;;;;5072215;28;20265;-78
2023/08/06 01:50:46;;;;;;;3.43;2.40;;;;;;;;;;5073424;28;20318;-76
2023/08/06 01:53:12;;;;;;;3.13;2.60;;;;;;;;;;5074140;28;20268;-78
2023/08/06 01:55:37;;;;;;;4.13;2.50;;;;;;;;;;5072786;28;20036;-77
2023/08/06 01:58:02;;;;;;;3.20;2.65;;;;;;;;;;5071865;28;20407;-77
2023/08/06 02:00:28;;;;;;;3.43;2.40;;;;;;;;;;5073233;28;20020;-77
2023/08/06 02:02:54;;;;;;;3.53;2.90;;;;;;;;;;5074120;28;20264;-79
2023/08/06 02:05:19;;;;;;;5.30;2.92;;;;;;;;;;5074231;28;20021;-79
2023/08/06 02:07:44;;;;;;;3.15;2.85;;;;;;;;;;5076019;28;20519;-77
2023/08/06 02:10:10;;;;;;;5.00;3.03;;;;;;;;;;5071558;28;20081;-78
2023/08/06 02:12:35;;;;;;;3.75;3.00;;;;;;;;;;5071598;28;20108;-77
2023/08/06 02:15:00;;;;;;;4.25;3.20;;;;;;;;;;5073283;28;20388;-78
2023/08/06 02:17:25;;;;;;;4.20;3.10;;;;;;;;;;5073106;28;20471;-77
2023/08/06 02:19:51;;;;;;;4.70;2.80;;;;;;;;;;5072974;28;20021;-77
2023/08/06 02:22:16;;;;;;;4.67;3.10;;;;;;;;;;5072960;28;20719;-78
2023/08/06 02:24:41;;;;;;;4.03;3.10;;;;;;;;;;5074027;28;20280;-77
2023/08/06 02:27:06;;;;;;;3.75;2.75;;;;;;;;;;5071908;28;20020;-77
2023/08/06 02:29:32;;;;;;;4.90;3.07;;;;;;;;;;5072985;28;20480;-78
2023/08/06 02:31:57;;;;;;;7.57;3.30;;;;;;;;;;5072687;28;20732;-77
2023/08/06 02:34:22;;;;;;;3.13;2.80;;;;;;;;;;5073491;28;20023;-78
2023/08/06 02:36:47;;;;;;;3.25;2.78;;;;;;;;;;5074794;28;20263;-79
2023/08/06 02:39:13;;;;;;;2.92;2.58;;;;;;;;;;5074302;28;20032;-78
2023/08/06 02:41:38;;;;;;;5.32;2.90;;;;;;;;;;5072821;28;20021;-78
2023/08/06 02:44:03;;;;;;;4.30;2.83;;;;;;;;;;5075349;28;20029;-77
2023/08/06 02:46:29;;;;;;;4.13;2.85;;;;;;;;;;5073480;28;20031;-78
2023/08/06 02:48:54;;;;;;;3.90;2.97;;;;;;;;;;5072909;28;20438;-78
2023/08/06 02:51:19;;;;;;;3.08;2.78;;;;;;;;;;5074398;28;20078;-78
2023/08/06 02:53:45;;;;;;;3.73;2.93;;;;;;;;;;5077007;28;20017;-76
2023/08/06 02:56:10;;;;;;;6.32;2.90;;;;;;;;;;5077178;28;20288;-78
2023/08/06 02:58:35;;;;;;;6.50;3.05;;;;;;;;;;5075489;28;20052;-77
2023/08/06 03:01:05;;;;;;;21.30;3.50;;;;;;;;;;5076888;28;20079;-78
2023/08/06 03:03:31;;;;;;;5.45;3.20;;;;;;;;;;5076593;28;20279;-77
2023/08/06 03:05:56;;;;;;;4.05;3.40;;;;;;;;;;5077170;28;20024;-78
2023/08/06 03:08:22;;;;;;;3.88;3.08;;;;;;;;;;5077702;28;20024;-77
2023/08/06 03:10:48;;;;;;;4.40;3.35;;;;;;;;;;5077229;28;20024;-78
2023/08/06 03:13:13;;;;;;;4.53;3.40;;;;;;;;;;5076329;28;20048;-78
2023/08/06 03:15:39;;;;;;;4.55;3.20;;;;;;;;;;5077246;28;20423;-78
2023/08/06 03:18:05;;;;;;;5.70;3.10;;;;;;;;;;5078867;28;20024;-78
2023/08/06 03:20:32;;;;;;;3.47;3.15;;;;;;;;;;5075836;28;20307;-78
2023/08/06 03:22:57;;;;;;;3.53;3.20;;;;;;;;;;5077541;28;20028;-78
2023/08/06 03:25:22;;;;;;;6.85;3.28;;;;;;;;;;5076108;28;20028;-78
2023/08/06 03:27:47;;;;;;;5.78;3.20;;;;;;;;;;5076062;28;20040;-77
2023/08/06 03:30:13;;;;;;;3.35;2.85;;;;;;;;;;5075785;28;20024;-78
2023/08/06 03:32:38;;;;;;;3.78;3.35;;;;;;;;;;5077072;28;20384;-77
2023/08/06 03:35:03;;;;;;;3.60;3.03;;;;;;;;;;5076963;28;20036;-77
2023/08/06 03:37:29;;;;;;;5.03;2.90;;;;;;;;;;5078143;28;20759;-78
2023/08/06 03:39:54;;;;;;;3.13;2.53;;;;;;;;;;5077959;28;20032;-78
2023/08/06 03:42:19;;;;;;;4.30;3.05;;;;;;;;;;5076902;28;20351;-77
2023/08/06 03:44:44;;;;;;;6.17;3.03;;;;;;;;;;5075884;28;20028;-78
2023/08/06 03:47:10;;;;;;;5.28;3.05;;;;;;;;;;5078570;28;20253;-78
2023/08/06 03:49:35;;;;;;;2.97;2.60;;;;;;;;;;5076828;28;20471;-78
2023/08/06 03:52:00;;;;;;;3.80;3.10;;;;;;;;;;5076304;28;20032;-77
2023/08/06 03:54:26;;;;;;;3.67;2.70;;;;;;;;;;5075541;28;20475;-78
2023/08/06 03:56:51;;;;;;;3.78;2.67;;;;;;;;;;5075467;28;20684;-78
2023/08/06 03:59:16;;;;;;;3.72;2.92;;;;;;;;;;5077006;28;20019;-77
2023/08/06 04:01:44;;;;;;;3.05;2.72;;;;;;;;;;5073885;28;20024;-79
2023/08/06 04:04:10;;;;;;;3.90;3.08;;;;;;;;;;5075246;28;20029;-78
2023/08/06 04:06:35;;;;;;;3.53;2.70;;;;;;;;;;5075376;28;20021;-78
2023/08/06 04:09:00;;;;;;;3.20;2.60;;;;;;;;;;5075281;28;20291;-77
2023/08/06 04:11:25;;;;;;;2.70;2.35;;;;;;;;;;5074966;28;20479;-77
2023/08/06 04:13:50;;;;;;;3.58;2.67;;;;;;;;;;5075144;28;20020;-76
2023/08/06 04:16:16;;;;;;;3.08;2.28;;;;;;;;;;5074498;28;20028;-78
2023/08/06 04:18:41;;;;;;;3.55;2.20;;;;;;;;;;5075348;28;20099;-77
2023/08/06 04:21:06;;;;;;;3.13;2.40;;;;;;;;;;5075304;28;20368;-77
2023/08/06 04:23:32;;;;;;;4.78;2.50;;;;;;;;;;5073738;28;20030;-78
2023/08/06 04:25:57;;;;;;;3.53;2.40;;;;;;;;;;5074761;28;20090;-77
2023/08/06 04:28:23;;;;;;;3.22;2.00;;;;;;;;;;5075027;28;20025;-77
2023/08/06 04:30:48;;;;;;;2.45;2.25;;;;;;;;;;5077308;28;20028;-78
2023/08/06 04:33:13;;;;;;;2.92;2.38;;;;;;;;;;5076582;28;20020;-79
2023/08/06 04:35:38;;;;;;;2.85;2.50;;;;;;;;;;5075393;28;20027;-78
2023/08/06 04:38:04;;;;;;;2.60;1.80;;;;;;;;;;5078038;28;20078;-78
2023/08/06 04:40:29;;;;;;;2.72;2.00;;;;;;;;;;5078720;28;20367;-78
2023/08/06 04:42:54;;;;;;;2.83;1.93;;;;;;;;;;5075826;28;20024;-77
2023/08/06 04:45:19;;;;;;;3.83;2.03;;;;;;;;;;5074830;28;20249;-77
2023/08/06 04:47:45;;;;;;;2.03;1.85;;;;;;;;;;5076022;28;20031;-78
2023/08/06 04:50:10;;;;;;;2.37;1.90;;;;;;;;;;5074543;28;20025;-76
2023/08/06 04:52:36;;;;;;;1.75;1.65;;;;;;;;;;5076878;28;20324;-79
2023/08/06 04:55:01;;;;;;;2.85;1.77;;;;;;;;;;5076362;28;20024;-78
2023/08/06 04:57:27;;;;;;;2.03;1.80;;;;;;;;;;5074111;28;20077;-78
2023/08/06 04:59:52;;;;;;;2.53;1.90;;;;;;;;;;5073039;28;20023;-77
2023/08/06 05:02:17;;;;;;;2.42;2.03;;;;;;;;;;5073927;28;20027;-77
2023/08/06 05:04:43;;;;;;;2.17;1.90;;;;;;;;;;5074673;28;20028;-77
2023/08/06 05:07:08;;;;;;;2.10;1.90;;;;;;;;;;5074178;28;20032;-77
2023/08/06 05:09:33;;;;;;;1.75;1.52;;;;;;;;;;5072687;28;20027;-78
2023/08/06 05:12:01;;;;;;;2.30;1.70;;;;;;;;;;5073963;28;20028;-77
2023/08/06 05:14:26;;;;;;;2.17;1.70;;;;;;;;;;5072620;28;20509;-78
2023/08/06 05:16:51;;;;;;;2.38;1.80;;;;;;;;;;5072980;28;20025;-78
2023/08/06 05:19:17;;;;;;;2.00;1.80;;;;;;;;;;5074093;28;20020;-78
2023/08/06 05:21:42;;;;;;;4.50;1.87;;;;;;;;;;5073776;28;20028;-76
2023/08/06 05:24:07;;;;;;;2.37;1.80;;;;;;;;;;5074018;28;20261;-79
2023/08/06 05:26:32;;;;;;;4.97;2.10;;;;;;;;;;5075386;28;20261;-77
2023/08/06 05:28:59;;;;;;;4.22;2.05;;;;;;;;;;5072296;28;20020;-77
2023/08/06 05:31:24;;;;;;;2.35;2.10;;;;;;;;;;5072674;28;20029;-77
2023/08/06 05:33:49;;;;;;;2.83;2.20;;;;;;;;;;5074319;28;20020;-77
2023/08/06 05:36:14;;;;;;;2.08;1.55;;;;;;;;;;5074734;28;20020;-77
2023/08/06 05:38:40;;;;;;;4.82;2.15;;;;;;;;;;5074519;28;20047;-77
2023/08/06 05:41:05;;;;;;;2.75;2.17;;;;;;;;;;5073879;28;20085;-78
2023/08/06 05:43:30;;;;;;;3.28;2.20;;;;;;;;;;5075785;28;20047;-78
2023/08/06 05:45:56;;;;;;;3.60;2.10;;;;;;;;;;5075985;28;20048;-77
2023/08/06 05:48:22;;;;;;;2.30;2.10;;;;;;;;;;5074005;28;20039;-77
2023/08/06 05:50:47;;;;;;;2.67;2.20;;;;;;;;;;5076453;28;20025;-77
2023/08/06 05:53:13;;;;;;;3.70;2.28;;;;;;;;;;5076203;28;20027;-78
2023/08/06 05:55:38;;;;;;;3.13;2.33;;;;;;;;;;5075665;28;20112;-78
2023/08/06 05:58:04;;;;;;;3.25;2.13;;;;;;;;;;5078064;28;20627;-77
2023/08/06 06:00:29;;;;;;;4.00;2.17;;;;;;;;;;5074981;28;20016;-77
2023/08/06 06:02:55;;;;;;;2.60;2.25;;;;;;;;;;5074324;28;20086;-78
2023/08/06 06:05:20;;;;;;;2.70;2.03;;;;;;;;;;5077687;28;20024;-78
2023/08/06 06:07:45;;;;;;;2.80;2.20;;;;;;;;;;5074260;28;20253;-76
2023/08/06 06:10:10;;;;;;;4.47;2.10;;;;;;;;;;5076456;28;20027;-78
2023/08/06 06:12:38;;;;;;;3.67;2.30;;;;;;;;;;5074701;28;20771;-77
2023/08/06 06:15:04;;;;;;;2.17;1.98;;;;;;;;;;5073628;28;20032;-78
2023/08/06 06:17:29;;;;;;;3.13;2.35;;;;;;;;;;5073091;28;20047;-77
2023/08/06 06:19:54;;;;;;;2.88;2.40;;;;;;;;;;5071874;28;20097;-76
2023/08/06 06:22:19;;;;;;;2.80;2.47;;;;;;;;;;5072955;28;20017;-76
2023/08/06 06:24:45;;;;;;;2.60;2.40;;;;;;;;;;5071615;28;20020;-78
2023/08/06 06:27:10;;;;;;;2.30;2.07;;;;;;;;;;5072773;28;20289;-76
2023/08/06 06:29:35;;;;;;;2.60;2.17;;;;;;;;;;5077382;28;20307;-77
2023/08/06 06:32:00;;;;;;;2.47;2.00;;;;;;;;;;5075959;28;20025;-77
2023/08/06 06:34:26;;;;;;;2.90;2.20;;;;;;;;;;5077841;28;20029;-78
2023/08/06 06:36:51;;;;;;;2.37;1.87;;;;;;;;;;5076316;28;20293;-78
2023/08/06 06:39:17;;;;;;;4.43;1.90;;;;;;;;;;5076214;28;20643;-78
2023/08/06 06:41:44;;;;;;;5.20;2.10;;;;;;;;;;5076430;28;20272;-78
2023/08/06 06:44:09;;;;;;;2.15;1.92;;;;;;;;;;5076582;28;20029;-77
2023/08/06 06:46:34;;;;;;;2.50;1.95;;;;;;;;;;5076291;28;20054;-77
2023/08/06 06:49:00;;;;;;;2.20;2.00;;;;;;;;;;5075226;28;20392;-77
2023/08/06 06:51:25;;;;;;;2.95;1.80;;;;;;;;;;5075439;28;20020;-78
2023/08/06 06:53:50;;;;;;;3.00;2.20;;;;;;;;;;5077392;28;20029;-78
2023/08/06 06:56:15;;;;;;;3.33;2.10;;;;;;;;;;5076072;28;20740;-78
2023/08/06 06:58:40;;;;;;;2.50;2.30;;;;;;;;;;5075490;28;20017;-75
2023/08/06 07:01:06;;;;;;;3.05;2.35;;;;;;;;;;5073399;28;20031;-76
2023/08/06 07:03:31;;;;;;;2.45;2.25;;;;;;;;;;5074792;28;20045;-75
2023/08/06 07:06:00;;;;;;;4.15;2.38;;;;;;;;;;5076814;28;20052;-85
2023/08/06 07:08:26;;;;;;;4.68;2.25;;;;;;;;;;5077610;28;20021;-78
2023/08/06 07:11:00;;;;;;;2.50;2.15;;;;;;;;;;5078911;28;20406;-78
2023/08/06 07:13:25;;;;;;;3.15;2.78;;;;;;;;;;5077981;28;20062;-77
2023/08/06 07:15:50;;;;;;;3.88;2.47;;;;;;;;;;5074074;28;20430;-77
2023/08/06 07:18:16;;;;;;;3.92;2.50;;;;;;;;;;5076830;28;20032;-78
2023/08/06 07:20:41;;;;;;;2.43;2.20;;;;;;;;;;5079435;28;20577;-78
2023/08/06 07:23:06;;;;;;;3.40;2.57;;;;;;;;;;5078607;28;20670;-78
2023/08/06 07:25:31;;;;;;;3.03;2.60;;;;;;;;;;5078419;28;20260;-78
2023/08/06 07:27:57;;;;;;;5.40;2.70;;;;;;;;;;5078371;28;20032;-78
2023/08/06 07:30:22;;;;;;;2.90;2.50;;;;;;;;;;5041225;28;1023685;-78
2023/08/06 07:32:47;;;;;;;3.08;2.53;;;;;;;;;;5079261;28;20134;-78
2023/08/06 07:35:14;;;;;;;3.57;2.70;;;;;;;;;;5080920;28;20020;-78
2023/08/06 07:37:39;;;;;;;3.65;3.03;;;;;;;;;;5080741;28;20253;-78
2023/08/06 07:40:05;;;;;;;3.70;2.93;;;;;;;;;;5080796;28;20533;-79
2023/08/06 07:42:30;;;;;;;5.15;3.05;;;;;;;;;;5079054;28;20275;-78
2023/08/06 07:44:57;;;;;;;5.57;3.15;;;;;;;;;;5078838;28;20024;-78
2023/08/06 07:47:23;;;;;;;5.10;3.58;;;;;;;;;;5078618;28;20056;-78
2023/08/06 07:49:48;;;;;;;4.15;3.25;;;;;;;;;;5077432;28;20020;-79
2023/08/06 07:52:13;;;;;;;3.85;3.25;;;;;;;;;;5080941;28;20029;-78
2023/08/06 07:54:39;;;;;;;3.40;2.92;;;;;;;;;;5078597;28;20511;-77
2023/08/06 07:57:04;;;;;;;5.05;3.20;;;;;;;;;;5076678;28;20028;-77
2023/08/06 07:59:30;;;;;;;4.88;2.80;;;;;;;;;;5076123;28;20553;-78
2023/08/06 08:01:55;;;;;;;5.90;3.60;;;;;;;;;;5074985;28;20044;-77
2023/08/06 08:04:21;;;;;;;6.07;3.40;;;;;;;;;;5079282;28;20024;-78
2023/08/06 08:06:47;;;;;;;5.43;3.03;;;;;;;;;;5079635;28;20365;-77
2023/08/06 08:09:13;;;;;;;4.97;3.10;;;;;;;;;;5075242;28;20722;-78
2023/08/06 08:11:38;;;;;;;3.33;2.90;;;;;;;;;;5074470;28;20115;-77
2023/08/06 08:14:04;;;;;;;4.32;3.08;;;;;;;;;;5074375;28;20071;-77
2023/08/06 08:16:29;;;;;;;3.92;2.88;;;;;;;;;;5075653;28;20039;-78
2023/08/06 08:18:54;;;;;;;3.85;3.00;;;;;;;;;;5077696;28;20021;-77
2023/08/06 08:21:20;;;;;;;3.38;2.65;;;;;;;;;;5077484;28;20020;-78
2023/08/06 08:23:54;;;;;;;5.47;2.80;;;;;;;;;;5074427;28;20024;-79
2023/08/06 08:26:19;;;;;;;4.63;2.63;;;;;;;;;;5074403;28;20628;-77
2023/08/06 08:28:44;;;;;;;4.57;3.00;;;;;;;;;;5075007;28;20036;-78
2023/08/06 08:31:11;;;;;;;3.35;2.75;;;;;;;;;;5076522;28;20032;-77
2023/08/06 08:33:37;;;;;;;3.58;2.63;;;;;;;;;;5076796;28;20398;-78
2023/08/06 08:36:02;;;;;;;4.63;2.53;;;;;;;;;;5076175;28;20107;-78
2023/08/06 08:38:28;;;;;;;2.53;2.30;;;;;;;;;;5075492;28;20120;-79
2023/08/06 08:40:54;;;;;;;2.93;2.17;;;;;;;;;;5075531;28;20016;-77
2023/08/06 08:43:21;;;;;;;4.50;2.38;;;;;;;;;;5075497;28;20340;-78
2023/08/06 08:45:50;;;;;;;2.55;2.20;;;;;;;;;;5075278;28;20021;-78
2023/08/06 08:48:16;;;;;;;3.97;2.40;;;;;;;;;;5074612;28;20039;-77
2023/08/06 08:50:44;;;;;;;3.03;2.42;;;;;;;;;;5073464;28;20060;-78
2023/08/06 08:53:12;;;;;;;3.22;2.05;;;;;;;;;;5075284;28;20078;-78
2023/08/06 08:55:38;;;;;;;2.92;2.25;;;;;;;;;;5074459;28;20028;-77
2023/08/06 08:58:04;;;;;;;3.13;2.10;;;;;;;;;;5077377;28;20431;-78
2023/08/06 09:00:29;;;;;;;2.73;2.07;;;;;;;;;;5078681;28;20032;-78
2023/08/06 09:02:56;;;;;;;2.80;1.90;;;;;;;;;;5078028;28;20260;-78
2023/08/06 09:05:23;;;;;;;1.88;1.60;;;;;;;;;;5076873;28;20025;-78
2023/08/06 09:07:52;;;;;;;1.95;1.65;;;;;;;;;;5074720;28;20451;-77
2023/08/06 09:10:23;;;;;;;2.33;1.77;;;;;;;;;;5072999;28;20016;-78
2023/08/06 09:12:53;;;;;;;2.30;1.60;;;;;;;;;;5074378;28;20024;-81
2023/08/06 09:15:19;;;;;;;2.40;1.77;;;;;;;;;;5077624;28;20050;-81
2023/08/06 09:17:44;;;;;;;2.22;1.77;;;;;;;;;;5076846;28;20437;-78
2023/08/06 09:20:14;;;;;;;1.98;1.67;;;;;;;;;;5075421;28;20104;-79
2023/08/06 09:22:39;;;;;;;1.70;1.50;;;;;;;;;;5075616;28;20025;-78
2023/08/06 09:25:09;;;;;;;3.25;1.75;;;;;;;;;;5074796;28;20055;-79
2023/08/06 09:27:35;;;;;;;3.33;1.90;;;;;;;;;;5074463;28;20521;-78
2023/08/06 09:30:01;;;;;;;2.22;1.60;;;;;;;;;;5074144;28;20028;-77
2023/08/06 09:32:26;;;;;;;3.03;1.75;;;;;;;;;;5073687;28;20085;-77
2023/08/06 09:34:56;;;;;;;1.90;1.70;;;;;;;;;;5073943;28;20111;-77
2023/08/06 09:37:22;;;;;;;4.63;1.60;;;;;;;;;;5075976;28;20062;-77
2023/08/06 09:39:47;;;;;;;4.70;1.90;;;;;;;;;;5073010;28;20111;-79
2023/08/06 09:42:14;;;;;;;1.77;1.63;;;;;;;;;;5073637;28;20096;-76
2023/08/06 09:44:40;;;;;;;3.42;2.00;;;;;;;;;;5073989;28;20032;-79
2023/08/06 09:47:05;;;;;;;2.63;1.70;;;;;;;;;;5073999;28;20105;-77
2023/08/06 09:49:34;;;;;;;2.92;1.70;;;;;;;;;;5071888;28;20024;-77
2023/08/06 09:52:00;;;;;;;2.30;1.65;;;;;;;;;;5073039;28;20031;-77
2023/08/06 09:54:27;;;;;;;5.20;1.73;;;;;;;;;;5074879;28;20112;-77
2023/08/06 09:56:56;;;;;;;2.03;1.60;;;;;;;;;;5075934;28;20032;-77
2023/08/06 09:59:22;;;;;;;3.60;1.77;;;;;;;;;;5074118;28;20020;-78
2023/08/06 10:01:48;;;;;;;3.33;1.75;;;;;;;;;;5074372;28;20069;-78
2023/08/06 10:04:16;;;;;;;3.22;1.70;;;;;;;;;;5073449;28;20429;-78
2023/08/06 10:06:42;;;;;;;3.60;1.75;;;;;;;;;;5074914;28;20180;-79
2023/08/06 10:09:09;;;;;;;2.90;1.70;;;;;;;;;;5073385;28;20029;-78
2023/08/06 10:11:36;;;;;;;2.67;1.85;;;;;;;;;;5075069;28;20020;-78
2023/08/06 10:14:13;;;;;;;2.00;1.70;;;;;;;;;;5075641;28;20479;-77
2023/08/06 10:16:40;;;;;;;4.05;2.08;;;;;;;;;;5074443;28;20135;-78
2023/08/06 10:19:08;;;;;;;2.03;1.73;;;;;;;;;;5075077;28;20027;-78
2023/08/06 10:21:34;;;;;;;1.90;1.70;;;;;;;;;;5075114;28;20040;-78
2023/08/06 10:23:59;;;;;;;2.28;1.92;;;;;;;;;;5073133;28;20020;-79
2023/08/06 10:26:29;;;;;;;3.20;2.00;;;;;;;;;;5075237;28;20434;-78
2023/08/06 10:28:55;;;;;;;2.20;1.90;;;;;;;;;;5074332;28;20024;-78
2023/08/06 10:31:55;;;;;;;2.22;1.60;;;;;;;;;;5076042;28;20517;-79
2023/08/06 10:34:21;;;;;;;2.25;1.67;;;;;;;;;;5075372;28;20040;-77
2023/08/06 10:36:46;;;;;;;2.72;1.70;;;;;;;;;;5076362;28;20059;-78
2023/08/06 10:39:15;;;;;;;1.92;1.60;;;;;;;;;;5075597;28;20456;-77
2023/08/06 10:41:42;;;;;;;2.42;1.70;;;;;;;;;;5076685;28;20017;-78
2023/08/06 10:44:09;;;;;;;3.00;1.80;;;;;;;;;;5075837;28;20047;-78
2023/08/06 10:46:35;;;;;;;2.80;1.40;;;;;;;;;;5074340;28;20498;-78
2023/08/06 10:49:01;;;;;;;3.60;1.70;;;;;;;;;;5074501;28;20028;-78
2023/08/06 10:51:27;;;;;;;2.40;1.75;;;;;;;;;;5072844;28;20029;-79
2023/08/06 10:53:52;;;;;;;4.32;1.50;;;;;;;;;;5076268;28;20104;-78
2023/08/06 10:56:19;;;;;;;1.98;1.40;;;;;;;;;;5076512;28;20052;-84
2023/08/06 10:58:46;;;;;;;1.98;1.63;;;;;;;;;;5076976;28;20407;-78
2023/08/06 11:01:11;;;;;;;2.25;2.00;;;;;;;;;;5077275;28;20021;-77
2023/08/06 11:03:38;;;;;;;3.80;1.73;;;;;;;;;;5074661;28;20020;-77
2023/08/06 11:06:04;;;;;;;2.60;1.73;;;;;;;;;;5076834;28;20047;-78
2023/08/06 11:08:34;;;;;;;3.25;1.80;;;;;;;;;;5076175;28;20020;-78
2023/08/06 11:11:13;;;;;;;2.22;1.70;;;;;;;;;;5076259;28;20078;-78
2023/08/06 11:13:46;;;;;;;2.35;1.67;;;;;;;;;;5077767;28;20035;-79
2023/08/06 11:16:17;;;;;;;1.88;1.60;;;;;;;;;;5079377;28;20119;-78
2023/08/06 11:18:42;;;;;;;3.28;1.25;;;;;;;;;;5080813;28;20029;-78
2023/08/06 11:21:08;;;;;;;2.95;1.60;;;;;;;;;;5079286;28;20032;-77
2023/08/06 11:23:34;;;;;;;2.85;1.55;;;;;;;;;;5080248;28;20054;-78
2023/08/06 11:26:00;;;;;;;2.00;1.48;;;;;;;;;;5079696;28;20108;-80
2023/08/06 11:28:26;;;;;;;2.75;1.67;;;;;;;;;;5082642;28;20056;-81
2023/08/06 11:30:52;;;;;;;2.90;1.70;;;;;;;;;;5077333;28;20033;-84
2023/08/06 11:33:27;;;;;;;8.25;3.00;;;;;;;;;;5076621;28;20020;-78
2023/08/06 11:35:54;;;;;;;2.25;1.60;;;;;;;;;;5078562;28;20071;-80
2023/08/06 11:38:20;;;;;;;1.83;1.50;;;;;;;;;;5078320;28;20044;-77
2023/08/06 11:40:45;;;;;;;2.95;1.83;;;;;;;;;;5080353;28;20096;-77
2023/08/06 11:43:12;;;;;;;3.13;1.80;;;;;;;;;;5079861;28;20399;-77
2023/08/06 11:45:37;;;;;;;2.40;1.60;;;;;;;;;;5078444;28;20025;-77
2023/08/06 11:48:04;;;;;;;4.15;1.80;;;;;;;;;;5079948;28;20039;-78
2023/08/06 11:50:30;;;;;;;1.67;1.58;;;;;;;;;;5079901;28;20441;-79
2023/08/06 11:53:00;;;;;;;2.05;1.40;;;;;;;;;;5078532;28;20057;-78
2023/08/06 11:55:28;;;;;;;1.52;1.25;;;;;;;;;;5079856;28;20042;-78
2023/08/06 11:57:53;;;;;;;1.92;1.50;;;;;;;;;;5079626;28;20024;-78
2023/08/06 12:00:19;;;;;;;2.47;1.50;;;;;;;;;;5079670;28;20586;-78
2023/08/06 12:02:46;;;;;;;2.17;1.50;;;;;;;;;;5078544;28;20024;-78
2023/08/06 12:05:14;;;;;;;5.35;1.63;;;;;;;;;;5078002;28;20441;-77
2023/08/06 12:07:48;;;;;;;1.73;1.38;;;;;;;;;;5077873;28;20033;-78
2023/08/06 12:10:14;;;;;;;2.38;1.63;;;;;;;;;;5079100;28;20025;-78
2023/08/06 12:12:40;;;;;;;1.80;1.50;;;;;;;;;;5078171;28;20020;-78
2023/08/06 12:15:06;;;;;;;1.90;1.48;;;;;;;;;;5077759;28;20415;-77
2023/08/06 12:17:32;;;;;;;2.60;1.70;;;;;;;;;;5076167;28;20021;-77
2023/08/06 12:19:57;;;;;;;1.77;1.55;;;;;;;;;;5075881;28;20028;-77
2023/08/06 12:22:23;;;;;;;2.17;1.48;;;;;;;;;;5078024;28;20078;-77
2023/08/06 12:24:48;;;;;;;2.30;1.50;;;;;;;;;;5077468;28;20093;-78
2023/08/06 12:27:14;;;;;;;2.00;1.65;;;;;;;;;;5079099;28;20031;-78
2023/08/06 12:29:48;;;;;;;6.85;1.67;;;;;;;;;;5079472;28;20068;-78
2023/08/06 12:32:14;;;;;;;;;;;;;;;;;;5078661;28;20558;-78
2023/08/06 12:34:40;;;;;;;1.52;1.42;;;;;;;;;;5077372;28;19908;-78
2023/08/06 12:37:07;;;;;;;3.40;1.67;;;;;;;;;;5076598;28;20060;-77
2023/08/06 12:39:32;;;;;;;2.15;1.52;;;;;;;;;;5074678;28;20024;-76
2023/08/06 12:42:02;;;;;;;2.80;1.80;;;;;;;;;;5074904;28;20020;-77
2023/08/06 12:44:28;;;;;;;2.75;2.38;;;;;;;;;;5075045;28;20055;-77
2023/08/06 12:46:54;;;;;;;2.60;2.10;;;;;;;;;;5076301;28;20021;-77
2023/08/06 12:49:22;;;;;;;4.88;1.83;;;;;;;;;;5078208;28;20020;-78
2023/08/06 12:51:49;;;;;;;4.05;1.90;;;;;;;;;;5075808;28;20024;-78
2023/08/06 12:54:16;;;;;;;4.13;2.42;;;;;;;;;;5076491;28;20025;-78
2023/08/06 12:56:42;;;;;;;6.90;2.35;;;;;;;;;;5077119;28;20020;-78
2023/08/06 12:59:07;;;;;;;5.30;1.90;;;;;;;;;;5078742;28;20020;-78
2023/08/06 13:01:32;;;;;;;1.97;1.70;;;;;;;;;;5078486;28;20029;-78
2023/08/06 13:03:59;;;;;;;2.17;1.88;;;;;;;;;;5078261;28;20325;-78
2023/08/06 13:06:24;;;;;;;2.53;1.85;;;;;;;;;;5076847;28;20125;-78
2023/08/06 13:08:49;;;;;;;3.85;1.55;;;;;;;;;;5076630;28;20479;-78
2023/08/06 13:11:15;;;;;;;2.10;1.73;;;;;;;;;;5076711;28;20029;-77
2023/08/06 13:13:40;;;;;;;2.83;2.10;;;;;;;;;;5078465;28;20339;-78
2023/08/06 13:16:05;;;;;;;2.67;1.80;;;;;;;;;;5078373;28;20055;-78
2023/08/06 13:18:31;;;;;;;2.25;1.90;;;;;;;;;;5077548;28;20025;-77
2023/08/06 13:20:56;;;;;;;2.60;1.80;;;;;;;;;;5078859;28;20017;-78
2023/08/06 13:23:21;;;;;;;2.47;1.70;;;;;;;;;;5077722;28;20077;-77
2023/08/06 13:25:47;;;;;;;2.15;1.73;;;;;;;;;;5076910;28;20032;-77
2023/08/06 13:28:13;;;;;;;1.88;1.27;;;;;;;;;;5077959;28;20020;-78
2023/08/06 13:30:42;;;;;;;12.68;1.60;;;;;;;;;;5077811;28;20028;-78
2023/08/06 13:33:11;;;;;;;3.22;1.30;;;;;;;;;;5078156;28;20035;-78
2023/08/06 13:35:36;;;;;;;2.72;1.70;;;;;;;;;;5076170;28;20107;-78
2023/08/06 13:38:04;;;;;;;3.67;1.83;;;;;;;;;;5078003;28;20436;-78
2023/08/06 13:40:32;;;;;;;3.00;1.60;;;;;;;;;;5077785;28;20020;-78
2023/08/06 13:42:58;;;;;;;3.67;1.52;;;;;;;;;;5077749;28;20035;-78
2023/08/06 13:45:23;;;;;;;1.70;1.30;;;;;;;;;;5076659;28;20016;-78
2023/08/06 13:47:48;;;;;;;2.90;1.50;;;;;;;;;;5077608;28;20050;-78
2023/08/06 13:50:14;;;;;;;1.80;1.38;;;;;;;;;;5078242;28;20466;-79
2023/08/06 13:52:40;;;;;;;2.00;1.50;;;;;;;;;;5078182;28;20082;-79
2023/08/06 13:55:08;;;;;;;1.80;1.40;;;;;;;;;;5077816;28;20487;-77
2023/08/06 13:57:34;;;;;;;1.95;1.52;;;;;;;;;;5077761;28;20025;-77
2023/08/06 14:00:00;;;;;;;1.70;1.40;;;;;;;;;;5076097;28;20107;-78
2023/08/06 14:02:25;;;;;;;3.05;1.48;;;;;;;;;;5077926;28;20078;-78
2023/08/06 14:04:52;;;;;;;2.78;1.40;;;;;;;;;;5077015;28;20539;-79
2023/08/06 14:07:17;;;;;;;4.18;1.40;;;;;;;;;;5077681;28;20094;-78
2023/08/06 14:09:44;;;;;;;2.47;1.50;;;;;;;;;;5077761;28;20479;-78
2023/08/06 14:12:09;;;;;;;2.28;1.65;;;;;;;;;;5077791;28;20254;-78
2023/08/06 14:14:34;;;;;;;2.53;1.50;;;;;;;;;;5077839;28;20082;-78
2023/08/06 14:17:00;;;;;;;1.50;1.40;;;;;;;;;;5076696;28;20042;-79
2023/08/06 14:19:26;;;;;;;2.10;1.80;;;;;;;;;;5076667;28;20013;-79
2023/08/06 14:21:51;;;;;;;2.40;1.50;;;;;;;;;;5076793;28;20024;-77
2023/08/06 14:24:16;;;;;;;2.63;1.40;;;;;;;;;;5077614;28;20107;-78
2023/08/06 14:26:42;;;;;;;1.97;1.60;;;;;;;;;;5077885;28;20276;-78
2023/08/06 14:29:07;;;;;;;2.97;1.55;;;;;;;;;;5077819;28;20277;-78
2023/08/06 14:31:32;;;;;;;1.42;1.30;;;;;;;;;;5076187;28;20406;-78
2023/08/06 14:33:58;;;;;;;3.03;1.70;;;;;;;;;;5075939;28;20024;-78
2023/08/06 14:36:23;;;;;;;2.63;1.45;;;;;;;;;;5076247;28;20020;-79
2023/08/06 14:38:48;;;;;;;4.13;1.50;;;;;;;;;;5075870;28;20016;-78